Terminal Aerodrome Forecast
Issued by NWS Wilmington, OH

Current Version | Previous Version | Text Only | Print | Product List | Glossary Off
Versions: 1 2 3 4 5 6 7 8 9 10 11 12 13 14 15 16 17 18 19 20 21 22 23 24 25 26 27 28 29

000
FTUS41 KILN 261400 AAA
TAFCVG
TAF AMD
KCVG 261455Z 2615/2718 20012KT P6SM SCT200
     FM262300 20008KT P6SM SCT200
     FM270500 18005KT P6SM SCT030 BKN200
      TEMPO 2705/2708 BKN030
     FM270800 18007KT P6SM BKN060=

USA.gov is the U.S. government's official web portal to all federal, state and local government web resources and services.